KTCL

Tuscaloosa Regional Airport

Tuscaloosa, Alabama, USA
METAR KTCL 182153Z 23006KT 10SM CLR 33/19 A3007 RMK AO2 SLP180 T03330189
Observed Flight Rules
Jun-18 @ 21:53 UTC (55 minutes ago) Visual Flight Rules
Wind Visibility Clouds
230° at 6 knots 10 miles
  • Clear skies
Temperatures Readings
Current 33°C / 91°F
Dewpoint 19°C / 66°F
Humidity 44%
Altimeter 30.07" Hg
Pressure 1018 hPa
Elevation 49
METAR KTCL 182153Z 23006KT 10SM CLR 33/19 A3007 RMK AO2 SLP180 T03330189
Observed Flight Rules
Jun-18 @ 21:53 UTC
(55 minutes ago)
VFR
Wind Visibility
230° at 6 knots 10 miles
Clouds
  • Clear skies
Temperature Dewpoint
33°C / 91°F 19°C / 66°F
Humidity Altimeter Pressure
44% 30.07" Hg 1018 hPa